Time,TemperatureF,DewpointF,PressureIn,WindDirection,WindDirectionDegrees,WindSpeedMPH,WindSpeedGustMPH,Humidity,HourlyPrecipIn,Conditions,Clouds,dailyrainin,SoftwareType,DateUTC
2013-04-24 00:01:00,54.2,36.5,30.06,NW,312,2.5,3.2,51,0.00,,SCT100,0.00,VWS V14.00,2013-04-24 04:01:00,
2013-04-24 00:02:00,54.0,36.8,30.09,NW,312,2.5,3.2,52,0.00,,CLR,0.00,VWS V14.00,2013-04-24 04:02:00,
2013-04-24 00:07:00,53.8,36.6,30.09,NW,312,2.5,2.7,52,0.00,,CLR,0.00,VWS V14.00,2013-04-24 04:07:00,
2013-04-24 00:12:00,53.5,36.3,30.09,NW,312,2.5,2.7,52,0.00,,CLR,0.00,VWS V14.00,2013-04-24 04:12:00,
2013-04-24 00:17:00,53.3,36.1,30.06,NNE,33,2.5,3.2,52,0.00,,CLR,0.00,VWS V14.00,2013-04-24 04:17:00,
2013-04-24 00:22:00,53.5,36.8,30.06,NE,34,0.0,0.0,53,0.00,,CLR,0.00,VWS V14.00,2013-04-24 04:22:00,
2013-04-24 00:27:00,53.5,36.8,30.06,NNE,33,0.0,0.0,53,0.00,,CLR,0.00,VWS V14.00,2013-04-24 04:27:00,
2013-04-24 00:32:00,53.3,36.6,30.06,NE,34,0.0,0.0,53,0.00,,CLR,0.00,VWS V14.00,2013-04-24 04:32:00,
2013-04-24 00:37:00,53.3,36.6,30.06,NE,34,0.0,2.7,53,0.00,,CLR,0.00,VWS V14.00,2013-04-24 04:37:00,
2013-04-24 00:43:00,53.1,36.9,30.06,NE,34,0.0,0.0,54,0.00,,CLR,0.00,VWS V14.00,2013-04-24 04:43:00,
2013-04-24 00:48:00,53.1,37.4,30.06,NE,34,0.0,0.0,55,0.00,,CLR,0.00,VWS V14.00,2013-04-24 04:48:00,
2013-04-24 00:53:00,52.5,36.8,30.06,NE,34,0.0,0.0,55,0.00,,CLR,0.00,VWS V14.00,2013-04-24 04:53:00,
2013-04-24 00:58:00,52.3,36.7,30.06,NE,34,0.0,0.0,55,0.00,,CLR,0.00,VWS V14.00,2013-04-24 04:58:00,
2013-04-24 01:03:00,52.2,37.4,30.06,NNE,33,0.0,0.0,57,0.00,,CLR,0.00,VWS V14.00,2013-04-24 05:03:00,
2013-04-24 01:08:00,52.2,37.4,30.06,NE,34,0.0,0.0,57,0.00,,CLR,0.00,VWS V14.00,2013-04-24 05:08:00,
2013-04-24 01:13:00,51.8,38.4,30.06,NE,34,0.0,0.0,60,0.00,,CLR,0.00,VWS V14.00,2013-04-24 05:13:00,
2013-04-24 01:18:00,51.6,37.8,30.06,NE,34,0.0,0.0,59,0.00,,CLR,0.00,VWS V14.00,2013-04-24 05:18:00,
2013-04-24 01:23:00,51.6,38.2,30.06,NNE,33,0.0,0.0,60,0.00,,CLR,0.00,VWS V14.00,2013-04-24 05:23:00,
2013-04-24 01:28:00,51.4,38.0,30.06,NE,34,0.0,0.0,60,0.00,,CLR,0.00,VWS V14.00,2013-04-24 05:28:00,
2013-04-24 01:33:00,51.2,37.8,30.06,NNE,33,0.0,0.0,60,0.00,,CLR,0.00,VWS V14.00,2013-04-24 05:33:00,
2013-04-24 01:39:00,51.2,38.3,30.06,NE,34,0.0,0.0,61,0.00,,CLR,0.00,VWS V14.00,2013-04-24 05:39:00,
2013-04-24 01:44:00,51.1,38.1,30.06,NNE,21,2.5,3.2,61,0.00,,CLR,0.00,VWS V14.00,2013-04-24 05:44:00,
2013-04-24 01:49:00,50.7,38.2,30.06,NNE,21,2.5,2.7,62,0.00,,CLR,0.00,VWS V14.00,2013-04-24 05:49:00,
2013-04-24 01:54:00,50.5,38.0,30.06,NNW,346,0.0,2.7,62,0.00,,CLR,0.00,VWS V14.00,2013-04-24 05:54:00,
2013-04-24 01:59:00,50.5,38.4,30.06,NNW,346,2.5,2.7,63,0.00,,CLR,0.00,VWS V14.00,2013-04-24 05:59:00,
2013-04-24 02:04:00,50.3,38.6,30.06,NNE,31,3.0,3.8,64,0.00,,CLR,0.00,VWS V14.00,2013-04-24 06:04:00,
2013-04-24 02:09:00,49.9,38.3,30.06,NNE,22,2.5,3.2,64,0.00,,CLR,0.00,VWS V14.00,2013-04-24 06:09:00,
2013-04-24 02:14:00,49.9,38.7,30.06,NNE,22,0.0,3.2,65,0.00,,CLR,0.00,VWS V14.00,2013-04-24 06:14:00,
2013-04-24 02:19:00,49.9,38.7,30.06,NE,56,3.0,3.2,65,0.00,,CLR,0.00,VWS V14.00,2013-04-24 06:19:00,
2013-04-24 02:25:00,49.9,39.0,30.06,NE,55,2.5,2.7,66,0.00,,CLR,0.00,VWS V14.00,2013-04-24 06:25:00,
2013-04-24 02:30:00,49.9,39.0,30.06,NE,55,0.0,0.0,66,0.00,,CLR,0.00,VWS V14.00,2013-04-24 06:30:00,
2013-04-24 02:35:00,49.9,39.4,30.03,NE,55,0.0,0.0,67,0.00,,CLR,0.00,VWS V14.00,2013-04-24 06:35:00,
2013-04-24 02:40:00,49.9,39.4,30.03,NE,55,2.5,3.2,67,0.00,,CLR,0.00,VWS V14.00,2013-04-24 06:40:00,
2013-04-24 02:45:00,49.8,38.9,30.03,NE,55,0.0,0.0,66,0.00,,CLR,0.00,VWS V14.00,2013-04-24 06:45:00,
2013-04-24 02:50:00,49.6,38.7,30.03,NE,55,0.0,0.0,66,0.00,,CLR,0.00,VWS V14.00,2013-04-24 06:50:00,
2013-04-24 02:55:00,49.4,38.5,30.03,NE,55,0.0,0.0,66,0.00,,CLR,0.00,VWS V14.00,2013-04-24 06:55:00,
2013-04-24 03:00:00,49.4,38.9,30.03,NE,55,0.0,0.0,67,0.00,,CLR,0.00,VWS V14.00,2013-04-24 07:00:00,
2013-04-24 03:06:00,49.2,38.7,30.03,NE,55,0.0,0.0,67,0.00,,CLR,0.00,VWS V14.00,2013-04-24 07:06:00,
2013-04-24 03:11:00,49.0,38.5,30.03,NE,55,0.0,0.0,67,0.00,,CLR,0.00,VWS V14.00,2013-04-24 07:11:00,
2013-04-24 03:16:00,49.0,38.9,30.03,NE,55,0.0,0.0,68,0.00,,CLR,0.00,VWS V14.00,2013-04-24 07:16:00,
2013-04-24 03:21:00,49.0,38.9,30.03,NE,55,0.0,0.0,68,0.00,,CLR,0.00,VWS V14.00,2013-04-24 07:21:00,
2013-04-24 03:26:00,48.8,38.8,30.03,NE,55,0.0,0.0,68,0.00,,CLR,0.00,VWS V14.00,2013-04-24 07:26:00,
2013-04-24 03:31:00,48.8,38.8,30.03,NE,55,0.0,0.0,68,0.00,,CLR,0.00,VWS V14.00,2013-04-24 07:31:00,
2013-04-24 03:36:00,48.7,39.0,30.03,NE,55,0.0,0.0,69,0.00,,CLR,0.00,VWS V14.00,2013-04-24 07:36:00,
2013-04-24 03:41:00,48.3,38.6,30.03,NE,55,0.0,0.0,69,0.00,,CLR,0.00,VWS V14.00,2013-04-24 07:41:00,
2013-04-24 03:46:00,48.1,38.4,30.03,NE,55,0.0,0.0,69,0.00,,CLR,0.00,VWS V14.00,2013-04-24 07:46:00,
2013-04-24 03:51:00,47.5,38.2,30.03,NE,55,0.0,0.0,70,0.00,,CLR,0.00,VWS V14.00,2013-04-24 07:51:00,
2013-04-24 03:57:00,47.2,38.2,30.03,NE,55,0.0,0.0,71,0.00,,CLR,0.00,VWS V14.00,2013-04-24 07:57:00,
2013-04-24 04:02:00,47.2,38.2,30.03,NE,55,0.0,0.0,71,0.00,,CLR,0.00,VWS V14.00,2013-04-24 08:02:00,
2013-04-24 04:07:00,47.2,38.2,30.03,NE,55,0.0,0.0,71,0.00,,CLR,0.00,VWS V14.00,2013-04-24 08:07:00,
2013-04-24 04:12:00,47.2,38.2,30.03,NE,55,0.0,0.0,71,0.00,,CLR,0.00,VWS V14.00,2013-04-24 08:12:00,
2013-04-24 04:17:00,47.3,39.1,30.03,NE,55,0.0,0.0,73,0.00,,CLR,0.00,VWS V14.00,2013-04-24 08:17:00,
2013-04-24 04:22:00,47.2,38.6,30.03,NE,55,0.0,0.0,72,0.00,,CLR,0.00,VWS V14.00,2013-04-24 08:22:00,
2013-04-24 04:27:00,46.8,38.6,30.03,NE,55,0.0,0.0,73,0.00,,CLR,0.00,VWS V14.00,2013-04-24 08:27:00,
2013-04-24 04:32:00,46.8,38.6,30.03,NE,55,0.0,0.0,73,0.00,,CLR,0.00,VWS V14.00,2013-04-24 08:32:00,
2013-04-24 04:37:00,46.8,38.6,30.03,NE,55,0.0,0.0,73,0.00,,CLR,0.00,VWS V14.00,2013-04-24 08:37:00,
2013-04-24 04:42:00,46.6,39.1,30.03,NE,55,0.0,0.0,75,0.00,,CLR,0.00,VWS V14.00,2013-04-24 08:42:00,
2013-04-24 04:48:00,46.6,38.8,30.03,NE,55,0.0,0.0,74,0.00,,CLR,0.00,VWS V14.00,2013-04-24 08:48:00,
2013-04-24 04:53:00,46.4,38.6,30.03,NE,55,0.0,0.0,74,0.00,,CLR,0.00,VWS V14.00,2013-04-24 08:53:00,
2013-04-24 04:58:00,46.2,38.4,30.03,NE,55,0.0,0.0,74,0.00,,CLR,0.00,VWS V14.00,2013-04-24 08:58:00,
2013-04-24 05:03:00,46.2,38.4,30.03,NE,55,0.0,0.0,74,0.00,,CLR,0.00,VWS V14.00,2013-04-24 09:03:00,
2013-04-24 05:08:00,45.9,38.1,30.03,NE,55,0.0,0.0,74,0.00,,CLR,0.00,VWS V14.00,2013-04-24 09:08:00,
2013-04-24 05:13:00,45.7,37.9,30.03,NE,55,0.0,0.0,74,0.00,,CLR,0.00,VWS V14.00,2013-04-24 09:13:00,
2013-04-24 05:18:00,45.7,37.9,30.03,NE,55,0.0,0.0,74,0.00,,CLR,0.00,VWS V14.00,2013-04-24 09:18:00,
2013-04-24 05:23:00,45.5,37.7,30.03,NE,55,0.0,0.0,74,0.00,,CLR,0.00,VWS V14.00,2013-04-24 09:23:00,
2013-04-24 05:28:00,45.5,38.0,30.03,NE,55,0.0,0.0,75,0.00,,CLR,0.00,VWS V14.00,2013-04-24 09:28:00,
2013-04-24 05:33:00,44.9,37.8,30.03,NE,55,0.0,0.0,76,0.00,,CLR,0.00,VWS V14.00,2013-04-24 09:33:00,
2013-04-24 05:39:00,44.9,37.8,30.03,NE,55,0.0,0.0,76,0.00,,CLR,0.00,VWS V14.00,2013-04-24 09:39:00,
2013-04-24 05:44:00,44.9,37.8,30.03,NE,55,0.0,0.0,76,0.00,,CLR,0.00,VWS V14.00,2013-04-24 09:44:00,
2013-04-24 05:49:00,44.8,37.7,30.03,NE,55,0.0,0.0,76,0.00,,CLR,0.00,VWS V14.00,2013-04-24 09:49:00,
2013-04-24 05:54:00,44.8,37.7,30.03,NE,55,0.0,0.0,76,0.00,,CLR,0.00,VWS V14.00,2013-04-24 09:54:00,
2013-04-24 05:59:00,44.4,37.3,30.03,NE,55,0.0,0.0,76,0.00,,CLR,0.00,VWS V14.00,2013-04-24 09:59:00,
2013-04-24 06:04:00,44.4,37.3,30.03,NE,55,0.0,0.0,76,0.00,,CLR,0.00,VWS V14.00,2013-04-24 10:04:00,
2013-04-24 06:09:00,44.4,37.6,30.03,NE,55,0.0,0.0,77,0.00,,CLR,0.00,VWS V14.00,2013-04-24 10:09:00,
2013-04-24 06:14:00,44.4,38.0,30.03,NE,55,0.0,0.0,78,0.00,,CLR,0.00,VWS V14.00,2013-04-24 10:14:00,
2013-04-24 06:19:00,44.2,37.8,30.03,NE,55,0.0,0.0,78,0.00,,CLR,0.00,VWS V14.00,2013-04-24 10:19:00,
2013-04-24 06:24:00,43.8,37.1,30.03,NE,55,0.0,2.7,77,0.00,,CLR,0.00,VWS V14.00,2013-04-24 10:24:00,
2013-04-24 06:30:00,43.8,37.1,30.03,NE,55,0.0,0.0,77,0.00,,CLR,0.00,VWS V14.00,2013-04-24 10:30:00,
2013-04-24 06:35:00,43.6,36.9,30.03,NE,55,0.0,0.0,77,0.00,,CLR,0.00,VWS V14.00,2013-04-24 10:35:00,
2013-04-24 06:40:00,43.5,37.1,30.03,NE,55,0.0,0.0,78,0.00,,CLR,0.00,VWS V14.00,2013-04-24 10:40:00,
2013-04-24 06:45:00,43.6,37.2,30.03,NE,55,0.0,0.0,78,0.00,,CLR,0.00,VWS V14.00,2013-04-24 10:45:00,
2013-04-24 06:50:00,43.6,37.6,30.03,NE,55,0.0,0.0,79,0.00,,CLR,0.00,VWS V14.00,2013-04-24 10:50:00,
2013-04-24 06:55:00,43.6,37.9,30.03,NE,55,0.0,0.0,80,0.00,,CLR,0.00,VWS V14.00,2013-04-24 10:55:00,
2013-04-24 07:00:00,43.5,37.4,30.03,NE,55,0.0,0.0,79,0.00,,CLR,0.00,VWS V14.00,2013-04-24 11:00:00,
2013-04-24 07:05:00,43.6,37.9,30.03,NE,55,0.0,0.0,80,0.00,,CLR,0.00,VWS V14.00,2013-04-24 11:05:00,
2013-04-24 07:10:00,43.5,37.7,30.03,NE,55,0.0,0.0,80,0.00,,CLR,0.00,VWS V14.00,2013-04-24 11:10:00,
2013-04-24 07:15:00,43.5,37.7,30.03,NE,55,0.0,0.0,80,0.00,,CLR,0.00,VWS V14.00,2013-04-24 11:15:00,
2013-04-24 07:21:00,43.3,37.2,30.03,NE,55,0.0,0.0,79,0.00,,CLR,0.00,VWS V14.00,2013-04-24 11:21:00,
2013-04-24 07:26:00,43.1,37.3,30.03,NE,55,0.0,0.0,80,0.00,,CLR,0.00,VWS V14.00,2013-04-24 11:26:00,
2013-04-24 07:31:00,43.1,37.3,30.03,NE,55,0.0,0.0,80,0.00,,CLR,0.00,VWS V14.00,2013-04-24 11:31:00,
2013-04-24 07:36:00,43.1,37.7,30.03,NE,55,0.0,0.0,81,0.00,,CLR,0.00,VWS V14.00,2013-04-24 11:36:00,
2013-04-24 07:41:00,43.1,37.7,30.03,NE,55,0.0,0.0,81,0.00,,CLR,0.00,VWS V14.00,2013-04-24 11:41:00,
2013-04-24 07:46:00,43.5,38.3,30.03,NE,55,0.0,0.0,82,0.00,,CLR,0.00,VWS V14.00,2013-04-24 11:46:00,
2013-04-24 07:51:00,43.6,38.8,30.03,NE,55,0.0,0.0,83,0.00,,CLR,0.00,VWS V14.00,2013-04-24 11:51:00,
2013-04-24 07:56:00,43.8,39.3,30.03,NE,55,0.0,0.0,84,0.00,,CLR,0.00,VWS V14.00,2013-04-24 11:56:00,
2013-04-24 08:01:00,44.2,40.0,30.03,NE,55,0.0,0.0,85,0.00,,CLR,0.00,VWS V14.00,2013-04-24 12:01:00,
2013-04-24 08:06:00,44.4,40.5,30.03,NE,55,0.0,2.7,86,0.00,,CLR,0.00,VWS V14.00,2013-04-24 12:06:00,
2013-04-24 08:11:00,44.9,41.3,30.03,NE,55,0.0,0.0,87,0.00,,CLR,0.00,VWS V14.00,2013-04-24 12:11:00,
2013-04-24 08:17:00,45.5,41.9,30.03,NNW,339,0.0,0.0,87,0.00,,CLR,0.00,VWS V14.00,2013-04-24 12:17:00,
2013-04-24 08:22:00,45.9,42.5,30.03,WNW,299,0.0,0.0,88,0.00,,CLR,0.00,VWS V14.00,2013-04-24 12:22:00,
2013-04-24 08:27:00,46.2,43.2,30.03,WNW,299,0.0,0.0,89,0.00,,CLR,0.00,VWS V14.00,2013-04-24 12:27:00,
2013-04-24 08:32:00,46.8,43.7,30.03,WNW,299,0.0,0.0,89,0.00,,CLR,0.00,VWS V14.00,2013-04-24 12:32:00,
2013-04-24 08:37:00,47.3,44.3,30.03,West,268,0.0,0.0,89,0.00,,CLR,0.00,VWS V14.00,2013-04-24 12:37:00,
2013-04-24 08:42:00,48.1,45.3,30.03,West,268,0.0,0.0,90,0.00,,CLR,0.00,VWS V14.00,2013-04-24 12:42:00,
2013-04-24 08:47:00,48.7,45.3,30.03,NNW,330,0.0,0.0,88,0.00,,CLR,0.00,VWS V14.00,2013-04-24 12:47:00,
2013-04-24 08:52:00,49.2,45.8,30.03,West,281,0.0,0.0,88,0.00,,CLR,0.00,VWS V14.00,2013-04-24 12:52:00,
2013-04-24 08:57:00,49.8,46.0,30.03,NW,305,3.4,3.8,87,0.00,,CLR,0.00,VWS V14.00,2013-04-24 12:57:00,
2013-04-24 09:02:00,50.1,46.1,30.03,WNW,303,2.5,3.8,86,0.00,,CLR,0.00,VWS V14.00,2013-04-24 13:02:00,
2013-04-24 09:07:00,50.5,46.2,30.03,WNW,295,0.0,0.0,85,0.00,,CLR,0.00,VWS V14.00,2013-04-24 13:07:00,
2013-04-24 09:12:00,50.9,46.2,30.03,WNW,301,2.5,3.8,84,0.00,,CLR,0.00,VWS V14.00,2013-04-24 13:12:00,
2013-04-24 09:18:00,51.6,46.9,30.03,WNW,301,2.5,2.7,84,0.00,,CLR,0.00,VWS V14.00,2013-04-24 13:18:00,
2013-04-24 09:23:00,52.5,47.8,30.03,WNW,301,0.0,2.7,84,0.00,,CLR,0.00,VWS V14.00,2013-04-24 13:23:00,
2013-04-24 09:28:00,53.5,48.1,30.03,WNW,301,2.5,2.7,82,0.00,,CLR,0.00,VWS V14.00,2013-04-24 13:28:00,
2013-04-24 09:33:00,54.6,48.2,30.00,NNW,329,3.0,3.8,79,0.00,,CLR,0.00,VWS V14.00,2013-04-24 13:33:00,
2013-04-24 09:38:00,55.3,47.2,30.00,NW,326,3.0,4.3,74,0.00,,CLR,0.00,VWS V14.00,2013-04-24 13:38:00,
2013-04-24 09:43:00,55.9,46.6,30.00,NW,314,3.0,3.2,71,0.00,,CLR,0.00,VWS V14.00,2013-04-24 13:43:00,
2013-04-24 09:48:00,56.6,47.0,30.00,WNW,301,3.9,4.8,70,0.00,,CLR,0.00,VWS V14.00,2013-04-24 13:48:00,
2013-04-24 09:53:00,57.2,47.1,30.00,SSW,199,3.0,3.8,69,0.00,,CLR,0.00,VWS V14.00,2013-04-24 13:53:00,
2013-04-24 09:58:00,57.7,47.2,30.00,WNW,283,4.4,7.0,68,0.00,,CLR,0.00,VWS V14.00,2013-04-24 13:58:00,
2013-04-24 10:04:00,58.3,47.4,30.00,SSE,167,3.4,4.3,67,0.00,,CLR,0.00,VWS V14.00,2013-04-24 14:04:00,
2013-04-24 10:09:00,59.2,46.6,30.00,South,187,5.4,5.9,63,0.00,,CLR,0.00,VWS V14.00,2013-04-24 14:09:00,
2013-04-24 10:14:00,60.1,46.7,30.00,SSE,166,3.9,8.1,61,0.00,,CLR,0.00,VWS V14.00,2013-04-24 14:14:00,
2013-04-24 10:19:00,60.7,44.9,30.00,SW,223,3.4,7.0,56,0.00,,CLR,0.00,VWS V14.00,2013-04-24 14:19:00,
2013-04-24 10:24:00,61.2,45.9,30.00,SW,229,4.4,4.8,57,0.00,,CLR,0.00,VWS V14.00,2013-04-24 14:24:00,
2013-04-24 10:29:00,61.6,46.3,30.00,WSW,253,3.4,3.8,57,0.00,,CLR,0.00,VWS V14.00,2013-04-24 14:29:00,
2013-04-24 10:34:00,62.5,46.7,29.97,SW,216,3.4,4.3,56,0.00,,CLR,0.00,VWS V14.00,2013-04-24 14:34:00,
2013-04-24 10:39:00,63.5,46.1,29.97,South,190,6.9,12.6,53,0.00,,CLR,0.00,VWS V14.00,2013-04-24 14:39:00,
2013-04-24 10:44:00,63.5,44.0,29.97,SSW,202,6.9,7.5,49,0.00,,CLR,0.00,VWS V14.00,2013-04-24 14:44:00,
2013-04-24 10:49:00,64.0,44.5,29.97,SSW,193,3.9,6.4,49,0.00,,CLR,0.00,VWS V14.00,2013-04-24 14:49:00,
2013-04-24 10:55:00,64.4,44.3,29.97,SSW,203,5.4,9.7,48,0.00,,CLR,0.00,VWS V14.00,2013-04-24 14:55:00,
2013-04-24 11:00:00,65.2,45.0,29.97,SSW,212,4.4,9.1,48,0.00,,CLR,0.00,VWS V14.00,2013-04-24 15:00:00,
2013-04-24 11:05:00,65.3,44.0,29.97,West,279,5.9,7.5,46,0.00,,CLR,0.00,VWS V14.00,2013-04-24 15:05:00,
2013-04-24 11:10:00,66.1,44.7,29.97,South,190,6.9,9.9,46,0.00,,CLR,0.00,VWS V14.00,2013-04-24 15:10:00,
2013-04-24 11:15:00,66.4,45.0,29.97,SSE,158,5.4,6.4,46,0.00,,CLR,0.00,VWS V14.00,2013-04-24 15:15:00,
2013-04-24 11:20:00,67.2,45.2,29.97,SW,219,5.9,7.5,45,0.00,,CLR,0.00,VWS V14.00,2013-04-24 15:20:00,
2013-04-24 11:25:00,66.4,44.5,29.97,WSW,238,2.5,7.5,45,0.00,,CLR,0.00,VWS V14.00,2013-04-24 15:25:00,
2013-04-24 11:30:00,66.6,44.7,29.97,SW,218,6.4,7.0,45,0.00,,CLR,0.00,VWS V14.00,2013-04-24 15:30:00,
2013-04-24 11:35:00,67.0,45.0,29.97,WSW,237,6.9,10.5,45,0.00,,CLR,0.00,VWS V14.00,2013-04-24 15:35:00,
2013-04-24 11:40:00,67.6,44.9,29.97,South,172,5.9,9.1,44,0.00,,CLR,0.00,VWS V14.00,2013-04-24 15:40:00,
2013-04-24 11:46:00,67.9,45.8,29.97,SW,223,6.4,9.1,45,0.00,,CLR,0.00,VWS V14.00,2013-04-24 15:46:00,
2013-04-24 11:51:00,68.3,46.2,29.94,West,272,5.4,6.4,45,0.00,,CLR,0.00,VWS V14.00,2013-04-24 15:51:00,
2013-04-24 11:56:00,68.7,45.9,29.94,SW,228,6.4,9.1,44,0.00,,CLR,0.00,VWS V14.00,2013-04-24 15:56:00,
2013-04-24 12:01:00,69.8,47.5,29.94,WSW,242,9.1,11.0,45,0.00,,CLR,0.00,VWS V14.00,2013-04-24 16:01:00,
2013-04-24 12:06:00,70.2,47.2,29.94,WSW,255,6.4,7.0,44,0.00,,CLR,0.00,VWS V14.00,2013-04-24 16:06:00,
2013-04-24 12:11:00,70.2,47.2,29.94,WSW,252,6.4,9.9,44,0.00,,CLR,0.00,VWS V14.00,2013-04-24 16:11:00,
2013-04-24 12:16:00,71.1,48.7,29.94,WSW,239,5.9,12.1,45,0.00,,CLR,0.00,VWS V14.00,2013-04-24 16:16:00,
2013-04-24 12:21:00,72.0,48.9,29.94,West,270,11.6,12.6,44,0.00,,CLR,0.00,VWS V14.00,2013-04-24 16:21:00,
2013-04-24 12:26:00,71.8,48.8,29.94,West,276,6.4,9.7,44,0.00,,CLR,0.00,VWS V14.00,2013-04-24 16:26:00,
2013-04-24 12:32:00,73.1,49.3,29.94,WSW,247,8.9,12.6,43,0.00,,CLR,0.00,VWS V14.00,2013-04-24 16:32:00,
2013-04-24 12:37:00,73.3,49.5,29.94,SW,231,9.6,10.5,43,0.00,,CLR,0.00,VWS V14.00,2013-04-24 16:37:00,
2013-04-24 12:42:00,73.9,49.3,29.94,WSW,253,12.1,13.2,42,0.00,,CLR,0.00,VWS V14.00,2013-04-24 16:42:00,
2013-04-24 12:47:00,73.3,50.7,29.94,NW,324,8.9,9.7,45,0.00,,CLR,0.00,VWS V14.00,2013-04-24 16:47:00,
2013-04-24 12:52:00,72.9,47.2,29.94,SW,235,3.9,9.7,40,0.00,,CLR,0.00,VWS V14.00,2013-04-24 16:52:00,
2013-04-24 12:57:00,73.1,47.4,29.94,SSE,160,3.9,13.2,40,0.00,,CLR,0.00,VWS V14.00,2013-04-24 16:57:00,
2013-04-24 13:02:00,72.8,46.4,29.94,SSW,212,6.9,12.6,39,0.00,,CLR,0.00,VWS V14.00,2013-04-24 17:02:00,
2013-04-24 13:07:00,73.1,47.4,29.94,WSW,253,8.4,9.1,40,0.00,,CLR,0.00,VWS V14.00,2013-04-24 17:07:00,
2013-04-24 13:12:00,72.9,47.2,29.94,WSW,256,6.9,7.5,40,0.00,,CLR,0.00,VWS V14.00,2013-04-24 17:12:00,
2013-04-24 13:17:00,73.3,47.5,29.94,South,190,10.1,11.0,40,0.00,,CLR,0.00,VWS V14.00,2013-04-24 17:17:00,
2013-04-24 13:22:00,72.9,45.9,29.94,SSE,153,11.1,15.3,38,0.00,,CLR,0.00,VWS V14.00,2013-04-24 17:22:00,
2013-04-24 13:27:00,72.6,46.2,29.94,SSW,210,9.1,19.6,39,0.00,,CLR,0.00,VWS V14.00,2013-04-24 17:27:00,
2013-04-24 13:33:00,72.8,46.4,29.94,South,185,14.0,15.3,39,0.00,,CLR,0.00,VWS V14.00,2013-04-24 17:33:00,
2013-04-24 13:38:00,72.9,45.2,29.94,West,261,10.6,20.9,37,0.00,,CLR,0.00,VWS V14.00,2013-04-24 17:38:00,
2013-04-24 13:43:00,72.8,45.7,29.94,WSW,254,11.6,13.2,38,0.00,,CLR,0.00,VWS V14.00,2013-04-24 17:43:00,
2013-04-24 13:48:00,72.2,45.2,29.91,SW,230,11.6,12.6,38,0.00,,CLR,0.00,VWS V14.00,2013-04-24 17:48:00,
2013-04-24 13:53:00,72.4,44.7,29.91,SW,227,11.1,12.1,37,0.00,,CLR,0.00,VWS V14.00,2013-04-24 17:53:00,
2013-04-24 13:58:00,72.8,45.0,29.91,South,170,14.5,18.5,37,0.00,,CLR,0.00,VWS V14.00,2013-04-24 17:58:00,
2013-04-24 14:03:00,73.7,46.5,29.91,SW,214,12.5,15.3,38,0.00,,FEW065,0.00,VWS V14.00,2013-04-24 18:03:00,
2013-04-24 14:08:00,73.3,45.5,29.91,SSW,203,14.5,15.8,37,0.00,,FEW065,0.00,VWS V14.00,2013-04-24 18:08:00,
2013-04-24 14:13:00,72.9,45.2,29.91,West,271,13.5,15.3,37,0.00,,FEW065,0.00,VWS V14.00,2013-04-24 18:13:00,
2013-04-24 14:18:00,73.1,45.3,29.91,SSE,160,9.6,12.1,37,0.00,,FEW065,0.00,VWS V14.00,2013-04-24 18:18:00,
2013-04-24 14:23:00,72.8,45.0,29.91,South,171,11.1,14.8,37,0.00,,FEW065,0.00,VWS V14.00,2013-04-24 18:23:00,
2013-04-24 14:28:00,72.6,45.5,29.91,SW,229,8.4,10.5,38,0.00,,FEW065,0.00,VWS V14.00,2013-04-24 18:28:00,
2013-04-24 14:33:00,72.4,44.7,29.91,SSW,203,4.4,9.1,37,0.00,,FEW065,0.00,VWS V14.00,2013-04-24 18:33:00,
2013-04-24 14:38:00,72.2,45.2,29.91,SSW,197,15.0,16.4,38,0.00,,FEW065,0.00,VWS V14.00,2013-04-24 18:38:00,
2013-04-24 14:44:00,72.4,45.4,29.91,SSW,192,7.4,13.2,38,0.00,,FEW065,0.00,VWS V14.00,2013-04-24 18:44:00,
2013-04-24 14:49:00,72.9,46.5,29.91,SSW,195,5.4,6.4,39,0.00,,FEW065,0.00,VWS V14.00,2013-04-24 18:49:00,
2013-04-24 14:54:00,74.1,46.8,29.91,SSW,212,8.9,12.6,38,0.00,,FEW065,0.00,VWS V14.00,2013-04-24 18:54:00,
2013-04-24 14:59:00,74.6,46.6,29.91,SSW,197,15.0,16.4,37,0.00,,FEW065,0.00,VWS V14.00,2013-04-24 18:59:00,
2013-04-24 15:04:00,74.2,45.6,29.91,SSW,206,11.1,12.1,36,0.00,,OVC100,0.00,VWS V14.00,2013-04-24 19:04:00,
2013-04-24 15:09:00,74.4,46.5,29.91,SSW,194,9.6,10.5,37,0.00,,OVC100,0.00,VWS V14.00,2013-04-24 19:09:00,
2013-04-24 15:14:00,74.6,45.9,29.91,SW,230,6.9,15.3,36,0.00,,OVC100,0.00,VWS V14.00,2013-04-24 19:14:00,
2013-04-24 15:19:00,74.1,45.4,29.88,SW,217,8.9,13.2,36,0.00,,OVC100,0.00,VWS V14.00,2013-04-24 19:19:00,
2013-04-24 15:24:00,73.9,45.3,29.88,SSE,168,8.9,14.8,36,0.00,,OVC100,0.00,VWS V14.00,2013-04-24 19:24:00,
2013-04-24 15:29:00,74.1,45.4,29.88,South,176,12.5,15.8,36,0.00,,OVC100,0.00,VWS V14.00,2013-04-24 19:29:00,
2013-04-24 15:34:00,74.8,46.8,29.88,SE,137,11.6,12.6,37,0.00,,OVC100,0.00,VWS V14.00,2013-04-24 19:34:00,
2013-04-24 15:40:00,74.8,46.1,29.88,SSW,196,6.9,9.1,36,0.00,,OVC100,0.00,VWS V14.00,2013-04-24 19:40:00,
2013-04-24 15:45:00,74.6,45.2,29.88,SSW,199,18.5,20.1,35,0.00,,OVC100,0.00,VWS V14.00,2013-04-24 19:45:00,
2013-04-24 15:50:00,74.6,45.9,29.88,South,185,8.4,12.1,36,0.00,,OVC100,0.00,VWS V14.00,2013-04-24 19:50:00,
2013-04-24 15:55:00,75.3,45.8,29.88,SSE,165,9.6,12.1,35,0.00,,OVC100,0.00,VWS V14.00,2013-04-24 19:55:00,
2013-04-24 16:00:00,74.8,45.3,29.88,SSW,206,11.6,16.4,35,0.00,,OVC100,0.00,VWS V14.00,2013-04-24 20:00:00,
2013-04-24 16:05:00,74.6,45.2,29.88,SSE,156,9.1,9.9,35,0.00,,OVC080,0.00,VWS V14.00,2013-04-24 20:05:00,
2013-04-24 16:10:00,74.2,44.8,29.88,SSW,202,6.9,20.1,35,0.00,,OVC080,0.00,VWS V14.00,2013-04-24 20:10:00,
2013-04-24 16:15:00,74.4,45.0,29.88,SSW,211,14.0,15.8,35,0.00,,OVC080,0.00,VWS V14.00,2013-04-24 20:15:00,
2013-04-24 16:20:00,74.1,44.7,29.88,SSW,206,6.9,12.6,35,0.00,,OVC080,0.00,VWS V14.00,2013-04-24 20:20:00,
2013-04-24 16:25:00,73.7,44.3,29.88,SW,229,17.0,20.4,35,0.00,,OVC080,0.00,VWS V14.00,2013-04-24 20:25:00,
2013-04-24 16:30:00,73.5,44.2,29.88,SSW,210,6.4,13.2,35,0.00,,OVC080,0.00,VWS V14.00,2013-04-24 20:30:00,
2013-04-24 16:35:00,73.7,45.1,29.88,WSW,237,10.1,13.2,36,0.00,,OVC080,0.00,VWS V14.00,2013-04-24 20:35:00,
2013-04-24 16:41:00,73.9,44.5,29.88,WSW,244,12.5,14.8,35,0.00,,OVC080,0.00,VWS V14.00,2013-04-24 20:41:00,
2013-04-24 16:46:00,73.7,44.3,29.88,WSW,250,8.9,12.1,35,0.00,,OVC080,0.00,VWS V14.00,2013-04-24 20:46:00,
2013-04-24 16:51:00,73.5,44.2,29.88,WSW,249,16.5,18.0,35,0.00,,OVC080,0.00,VWS V14.00,2013-04-24 20:51:00,
2013-04-24 16:56:00,73.5,43.4,29.88,WSW,255,9.6,15.3,34,0.00,,OVC080,0.00,VWS V14.00,2013-04-24 20:56:00,
2013-04-24 17:01:00,73.1,43.9,29.88,SSW,208,12.1,15.8,35,0.00,,OVC080,0.00,VWS V14.00,2013-04-24 21:01:00,
2013-04-24 17:06:00,73.1,43.1,29.88,SW,227,11.1,18.5,34,0.00,,RA,0.00,VWS V14.00,2013-04-24 21:06:00,
2013-04-24 17:11:00,72.6,43.4,29.88,South,191,21.7,23.6,35,0.00,,RA,0.00,VWS V14.00,2013-04-24 21:11:00,
2013-04-24 17:16:00,71.4,43.8,29.88,SW,232,13.5,14.8,37,0.00,,RA,0.00,VWS V14.00,2013-04-24 21:16:00,
2013-04-24 17:21:00,68.8,46.7,29.91,West,266,18.5,25.2,45,0.00,,RA,0.00,VWS V14.00,2013-04-24 21:21:00,
2013-04-24 17:26:00,60.7,49.3,29.91,West,280,26.6,29.0,66,0.00,,RA,0.00,VWS V14.00,2013-04-24 21:26:00,
2013-04-24 17:31:00,60.7,50.1,29.91,West,273,21.2,23.1,68,0.00,,RA,0.00,VWS V14.00,2013-04-24 21:31:00,
2013-04-24 17:36:00,61.8,50.8,29.94,West,262,11.6,13.2,67,0.01,,RA,0.01,VWS V14.00,2013-04-24 21:36:00,
2013-04-24 17:41:00,62.0,50.9,29.94,WSW,253,11.6,12.6,67,0.01,,RA,0.01,VWS V14.00,2013-04-24 21:41:00,
2013-04-24 17:46:00,62.2,50.3,29.94,SW,231,6.4,12.6,65,0.01,,RA,0.01,VWS V14.00,2013-04-24 21:46:00,
2013-04-24 17:51:00,62.2,50.3,29.94,SW,231,6.9,10.5,65,0.01,,RA,0.01,VWS V14.00,2013-04-24 21:51:00,
2013-04-24 17:57:00,62.2,50.7,29.94,South,182,3.9,9.9,66,0.01,,RA,0.01,VWS V14.00,2013-04-24 21:57:00,
2013-04-24 18:02:00,62.0,50.9,29.94,WSW,248,4.4,10.5,67,0.01,,RA,0.01,VWS V14.00,2013-04-24 22:02:00,
2013-04-24 18:07:00,62.2,51.1,29.94,South,180,4.9,9.9,67,0.01,,BKN070,0.01,VWS V14.00,2013-04-24 22:07:00,
2013-04-24 18:12:00,62.7,51.2,29.94,South,169,6.4,8.1,66,0.01,,BKN070,0.01,VWS V14.00,2013-04-24 22:12:00,
2013-04-24 18:17:00,63.3,51.3,29.91,South,183,3.9,6.4,65,0.01,,OVC040,0.01,VWS V14.00,2013-04-24 22:17:00,
2013-04-24 18:22:00,63.8,51.5,29.91,WSW,241,9.1,9.9,64,0.01,,OVC040,0.01,VWS V14.00,2013-04-24 22:22:00,
2013-04-24 18:27:00,64.0,52.0,29.91,SSW,203,3.9,6.4,65,0.01,,OVC040,0.01,VWS V14.00,2013-04-24 22:27:00,
2013-04-24 18:32:00,63.3,50.9,29.91,South,187,9.1,9.9,64,0.01,,OVC040,0.01,VWS V14.00,2013-04-24 22:32:00,
2013-04-24 18:37:00,63.1,50.8,29.91,SSW,193,8.4,9.7,64,0.00,,OVC040,0.01,VWS V14.00,2013-04-24 22:37:00,
2013-04-24 18:42:00,62.9,51.0,29.91,SW,217,9.6,15.3,65,0.00,,OVC040,0.01,VWS V14.00,2013-04-24 22:42:00,
2013-04-24 18:47:00,63.1,50.8,29.91,SW,220,6.9,18.5,64,0.00,,OVC040,0.01,VWS V14.00,2013-04-24 22:47:00,
2013-04-24 18:52:00,63.7,49.1,29.91,WSW,245,16.5,18.5,59,0.00,,OVC040,0.01,VWS V14.00,2013-04-24 22:52:00,
2013-04-24 18:57:00,63.5,49.4,29.91,WSW,243,9.1,12.1,60,0.00,,OVC040,0.01,VWS V14.00,2013-04-24 22:57:00,
2013-04-24 19:02:00,63.5,48.9,29.94,SW,231,12.1,13.2,59,0.00,,OVC070,0.01,VWS V14.00,2013-04-24 23:02:00,
2013-04-24 19:07:00,63.7,49.1,29.94,South,183,11.1,12.6,59,0.00,,OVC070,0.01,VWS V14.00,2013-04-24 23:07:00,
2013-04-24 19:12:00,63.5,48.9,29.94,SW,234,10.6,11.5,59,0.00,,OVC070,0.01,VWS V14.00,2013-04-24 23:12:00,
2013-04-24 19:17:00,63.5,49.4,29.94,West,268,11.6,12.6,60,0.00,,OVC070,0.01,VWS V14.00,2013-04-24 23:17:00,
2013-04-24 19:22:00,63.1,49.5,29.94,WSW,258,6.9,7.5,61,0.00,,OVC070,0.01,VWS V14.00,2013-04-24 23:22:00,
2013-04-24 19:27:00,62.7,50.4,29.94,West,270,11.1,14.2,64,0.00,,OVC070,0.01,VWS V14.00,2013-04-24 23:27:00,
2013-04-24 19:32:00,62.0,50.5,29.94,West,268,12.1,14.2,66,0.00,,-RA,0.01,VWS V14.00,2013-04-24 23:32:00,
2013-04-24 19:38:00,61.8,50.3,29.94,West,279,9.6,12.6,66,0.00,,-RA,0.01,VWS V14.00,2013-04-24 23:38:00,
2013-04-24 19:43:00,61.8,50.3,29.94,West,260,13.0,14.2,66,0.00,,-RA,0.01,VWS V14.00,2013-04-24 23:43:00,
2013-04-24 19:48:00,61.8,49.9,29.94,WSW,257,6.9,9.1,65,0.00,,OVC026,0.01,VWS V14.00,2013-04-24 23:48:00,
2013-04-24 19:53:00,61.8,49.5,29.94,WSW,257,9.6,10.5,64,0.00,,OVC026,0.01,VWS V14.00,2013-04-24 23:53:00,
2013-04-24 19:58:00,62.0,48.8,29.94,WSW,242,8.4,18.5,62,0.00,,OVC026,0.01,VWS V14.00,2013-04-24 23:58:00,
2013-04-24 20:03:00,62.0,49.3,29.94,West,270,8.9,11.5,63,0.00,,OVC004,0.01,VWS V14.00,2013-04-25 00:03:00,
2013-04-24 20:08:00,61.6,49.8,29.94,SW,224,17.0,20.4,65,0.00,,OVC004,0.01,VWS V14.00,2013-04-25 00:08:00,
2013-04-24 20:13:00,60.5,50.3,29.94,West,281,21.7,23.6,69,0.00,,OVC004,0.01,VWS V14.00,2013-04-25 00:13:00,
2013-04-24 20:18:00,58.5,50.2,29.94,WNW,286,18.7,20.4,74,0.00,,OVC010,0.01,VWS V14.00,2013-04-25 00:18:00,
2013-04-24 20:23:00,57.2,50.0,29.94,West,278,13.0,16.9,77,0.00,,OVC010,0.01,VWS V14.00,2013-04-25 00:23:00,
2013-04-24 20:28:00,56.2,50.2,29.94,WNW,296,14.0,17.4,80,0.01,,OVC010,0.02,VWS V14.00,2013-04-25 00:28:00,
2013-04-24 20:33:00,55.7,50.0,29.97,NW,320,9.6,12.1,81,0.01,,OVC010,0.02,VWS V14.00,2013-04-25 00:33:00,
2013-04-24 20:38:00,54.4,46.3,29.97,WNW,293,17.0,23.1,74,0.01,,OVC010,0.02,VWS V14.00,2013-04-25 00:38:00,
2013-04-24 20:43:00,53.8,45.0,29.97,WNW,283,7.9,8.6,72,0.01,,OVC010,0.02,VWS V14.00,2013-04-25 00:43:00,
2013-04-24 20:48:00,53.8,45.0,30.00,SSW,196,4.4,4.8,72,0.01,,OVC010,0.02,VWS V14.00,2013-04-25 00:48:00,
2013-04-24 20:53:00,53.8,44.3,30.00,West,271,9.1,9.9,70,0.01,,OVC010,0.02,VWS V14.00,2013-04-25 00:53:00,
2013-04-24 20:58:00,53.3,43.0,30.00,WSW,254,3.4,12.6,68,0.01,,OVC010,0.02,VWS V14.00,2013-04-25 00:58:00,
2013-04-24 21:03:00,53.5,42.8,30.00,South,171,3.4,4.8,67,0.01,,OVC017,0.02,VWS V14.00,2013-04-25 01:03:00,
2013-04-24 21:08:00,53.3,42.6,30.00,East,92,3.0,5.9,67,0.01,,OVC017,0.02,VWS V14.00,2013-04-25 01:08:00,
2013-04-24 21:14:00,53.1,42.4,30.00,ENE,72,3.4,3.8,67,0.01,,OVC017,0.02,VWS V14.00,2013-04-25 01:14:00,
2013-04-24 21:19:00,52.7,42.1,30.00,South,169,10.6,11.5,67,0.01,,-RA,0.02,VWS V14.00,2013-04-25 01:19:00,
2013-04-24 21:24:00,52.2,41.9,30.00,NW,305,3.9,9.1,68,0.01,,-RA,0.02,VWS V14.00,2013-04-25 01:24:00,
2013-04-24 21:29:00,51.8,41.2,30.00,West,272,6.9,18.5,67,0.00,,-RA,0.02,VWS V14.00,2013-04-25 01:29:00,
2013-04-24 21:34:00,51.4,40.8,30.03,North,357,9.6,19.1,67,0.00,,RA,0.02,VWS V14.00,2013-04-25 01:34:00,
2013-04-24 21:39:00,51.6,40.2,30.03,South,179,5.4,13.2,65,0.00,,RA,0.02,VWS V14.00,2013-04-25 01:39:00,
2013-04-24 21:44:00,51.4,40.1,30.03,NW,311,4.4,11.0,65,0.00,,RA,0.02,VWS V14.00,2013-04-25 01:44:00,
2013-04-24 21:49:00,51.6,39.4,30.06,South,190,5.4,9.7,63,0.00,,RA,0.02,VWS V14.00,2013-04-25 01:49:00,
2013-04-24 21:54:00,51.2,39.1,30.06,SW,234,6.4,7.5,63,0.00,,RA,0.02,VWS V14.00,2013-04-25 01:54:00,
2013-04-24 21:59:00,51.1,39.3,30.06,WNW,303,9.6,15.3,64,0.00,,RA,0.02,VWS V14.00,2013-04-25 01:59:00,
2013-04-24 22:04:00,50.5,39.6,30.06,WNW,283,15.5,16.9,66,0.00,,-RA,0.02,VWS V14.00,2013-04-25 02:04:00,
2013-04-24 22:09:00,49.9,38.3,30.06,WNW,287,9.1,13.2,64,0.00,,-RA,0.02,VWS V14.00,2013-04-25 02:09:00,
2013-04-24 22:14:00,48.8,37.6,30.06,NW,326,19.7,34.1,65,0.00,,-RA,0.02,VWS V14.00,2013-04-25 02:14:00,
2013-04-24 22:19:00,47.7,37.7,30.06,NW,318,20.2,30.6,68,0.00,,-RA,0.02,VWS V14.00,2013-04-25 02:19:00,
2013-04-24 22:24:00,47.7,37.3,30.06,North,357,10.6,24.7,67,0.00,,-RA,0.02,VWS V14.00,2013-04-25 02:24:00,
2013-04-24 22:29:00,47.5,37.5,30.06,NW,315,18.0,19.6,68,0.00,,-RA,0.02,VWS V14.00,2013-04-25 02:29:00,
2013-04-24 22:34:00,47.3,37.7,30.09,WNW,300,22.1,24.2,69,0.00,,-RA,0.02,VWS V14.00,2013-04-25 02:34:00,
2013-04-24 22:39:00,47.2,37.2,30.09,WNW,298,16.5,18.5,68,0.00,,-RA,0.02,VWS V14.00,2013-04-25 02:39:00,
2013-04-24 22:45:00,47.3,37.7,30.09,West,261,9.1,10.5,69,0.00,,-RA,0.02,VWS V14.00,2013-04-25 02:45:00,
2013-04-24 22:50:00,47.3,37.3,30.09,West,279,5.9,7.5,68,0.00,,OVC012,0.02,VWS V14.00,2013-04-25 02:50:00,
2013-04-24 22:55:00,47.3,37.3,30.09,NW,323,3.9,7.5,68,0.00,,OVC012,0.02,VWS V14.00,2013-04-25 02:55:00,
2013-04-24 23:00:00,46.8,35.7,30.09,NNW,331,9.6,18.5,65,0.00,,OVC012,0.02,VWS V14.00,2013-04-25 03:00:00,
2013-04-24 23:05:00,46.2,36.6,30.12,NW,320,14.0,25.2,69,0.00,,OVC012,0.02,VWS V14.00,2013-04-25 03:05:00,
2013-04-24 23:10:00,45.9,36.3,30.12,NNW,340,20.2,22.0,69,0.00,,OVC012,0.02,VWS V14.00,2013-04-25 03:10:00,
2013-04-24 23:15:00,45.5,36.3,30.12,NNW,342,11.1,14.8,70,0.00,,OVC012,0.02,VWS V14.00,2013-04-25 03:15:00,
2013-04-24 23:20:00,45.3,36.1,30.12,NNW,335,13.5,18.5,70,0.00,,OVC013,0.02,VWS V14.00,2013-04-25 03:20:00,
2013-04-24 23:25:00,45.1,35.9,30.12,NW,326,11.6,12.6,70,0.00,,OVC013,0.02,VWS V14.00,2013-04-25 03:25:00,
2013-04-24 23:30:00,45.1,36.3,30.12,WNW,296,8.4,9.7,71,0.00,,OVC013,0.02,VWS V14.00,2013-04-25 03:30:00,
2013-04-24 23:35:00,45.1,35.9,30.12,NNW,329,8.4,9.1,70,0.00,,OVC013,0.02,VWS V14.00,2013-04-25 03:35:00,
2013-04-24 23:40:00,45.1,35.2,30.12,WNW,296,9.1,9.9,68,0.00,,OVC013,0.02,VWS V14.00,2013-04-25 03:40:00,
2013-04-24 23:46:00,44.9,35.0,30.12,NNW,339,0.0,4.3,68,0.00,,OVC015,0.02,VWS V14.00,2013-04-25 03:46:00,
2013-04-24 23:51:00,45.1,34.8,30.12,WNW,288,2.5,3.8,67,0.00,,OVC015,0.02,VWS V14.00,2013-04-25 03:51:00,
2013-04-24 23:56:00,45.1,34.8,30.12,WNW,292,4.4,8.6,67,0.00,,OVC015,0.02,VWS V14.00,2013-04-25 03:56:00,